createdAt,value
2022-12-29T00:00:14.515Z,18.17
2022-12-29T00:02:43.716Z,16.67
2022-12-29T00:05:11.741Z,16.73
2022-12-29T00:07:39.927Z,14.48
2022-12-29T00:10:08.707Z,16.92
2022-12-29T00:12:55.476Z,17.08
2022-12-29T00:15:38.532Z,19.23
2022-12-29T00:18:07.389Z,17.30
2022-12-29T00:20:56.829Z,18.25
2022-12-29T00:23:43.330Z,15.65
2022-12-29T00:26:34.882Z,14.63
2022-12-29T00:29:21.552Z,19.05
2022-12-29T00:32:08.282Z,21.10
2022-12-29T00:34:55.006Z,16.35
2022-12-29T00:37:43.029Z,16.27
2022-12-29T00:40:29.499Z,17.40
2022-12-29T00:43:16.048Z,23.27
2022-12-29T00:45:44.857Z,19.42
2022-12-29T00:48:12.638Z,15.23
2022-12-29T00:50:40.447Z,15.48
2022-12-29T00:53:08.327Z,15.13
2022-12-29T00:55:39.948Z,13.68
2022-12-29T00:58:07.853Z,16.45
2022-12-29T01:00:35.745Z,12.93
2022-12-29T01:03:04.469Z,15.85
2022-12-29T01:05:32.421Z,14.93
2022-12-29T01:08:00.245Z,13.80
2022-12-29T01:10:28.083Z,13.18
2022-12-29T01:12:55.973Z,14.38
2022-12-29T01:15:23.879Z,15.98
2022-12-29T01:17:51.697Z,14.32
2022-12-29T01:20:19.798Z,13.85
2022-12-29T01:22:48.391Z,13.90
2022-12-29T01:25:16.272Z,11.95
2022-12-29T01:27:44.111Z,12.15
2022-12-29T01:30:13.971Z,14.07
2022-12-29T01:32:42.107Z,17.55
2022-12-29T01:35:10.100Z,14.45
2022-12-29T01:37:37.994Z,15.15
2022-12-29T01:40:06.385Z,13.38
2022-12-29T01:42:34.988Z,12.77
2022-12-29T01:45:13.282Z,13.55
2022-12-29T01:47:49.454Z,15.40
2022-12-29T01:50:23.093Z,11.60
2022-12-29T01:53:07.041Z,12.68
2022-12-29T01:55:49.488Z,10.77
2022-12-29T01:58:21.555Z,9.98
2022-12-29T02:00:50.029Z,13.13
2022-12-29T02:03:20.875Z,14.98
2022-12-29T02:05:54.181Z,14.10
2022-12-29T02:08:25.967Z,12.73
2022-12-29T02:10:54.802Z,14.57
2022-12-29T02:13:31.478Z,11.27
2022-12-29T02:16:21.187Z,16.15
2022-12-29T02:19:26.538Z,12.65
2022-12-29T02:22:30.368Z,14.75
2022-12-29T02:25:46.228Z,15.45
2022-12-29T02:28:16.864Z,14.70
2022-12-29T02:31:23.058Z,12.40
2022-12-29T02:34:28.731Z,11.07
2022-12-29T02:37:32.134Z,12.38
2022-12-29T02:40:26.536Z,18.77
2022-12-29T02:43:05.444Z,17.50
2022-12-29T02:45:40.183Z,13.50
2022-12-29T02:48:39.095Z,13.95
2022-12-29T02:51:25.122Z,16.70
2022-12-29T02:54:13.528Z,13.88
2022-12-29T02:56:42.308Z,15.68
2022-12-29T02:59:11.406Z,15.85
2022-12-29T03:02:18.097Z,18.98
2022-12-29T03:05:08.219Z,19.05
2022-12-29T03:07:58.229Z,17.35
2022-12-29T03:10:54.084Z,19.85
2022-12-29T03:14:03.990Z,16.13
2022-12-29T03:16:46.793Z,16.67
2022-12-29T03:19:16.873Z,17.52
2022-12-29T03:22:16.181Z,11.07
2022-12-29T03:24:53.379Z,13.63
2022-12-29T03:27:26.820Z,15.00
2022-12-29T03:29:59.853Z,13.48
2022-12-29T03:32:41.787Z,11.02
2022-12-29T03:35:13.300Z,10.85
2022-12-29T03:37:50.787Z,12.57
2022-12-29T03:40:22.446Z,13.07
2022-12-29T03:42:51.650Z,12.43
2022-12-29T03:45:20.010Z,13.50
2022-12-29T03:47:48.014Z,11.60
2022-12-29T03:50:17.553Z,11.88
2022-12-29T03:52:46.432Z,13.15
2022-12-29T03:55:14.396Z,11.38
2022-12-29T03:57:42.683Z,11.48
2022-12-29T04:00:14.982Z,12.15
2022-12-29T04:02:51.190Z,13.55
2022-12-29T04:05:22.455Z,10.07
2022-12-29T04:07:52.863Z,10.82
2022-12-29T04:10:20.896Z,13.27
2022-12-29T04:12:50.839Z,16.52
2022-12-29T04:15:18.815Z,16.73
2022-12-29T04:17:46.652Z,11.55
2022-12-29T04:20:32.871Z,13.48
2022-12-29T04:23:04.590Z,14.05
2022-12-29T04:25:34.070Z,12.85
2022-12-29T04:28:03.178Z,12.30
2022-12-29T04:30:45.037Z,12.65
2022-12-29T04:33:20.012Z,15.05
2022-12-29T04:35:48.575Z,15.73
2022-12-29T04:38:17.201Z,14.85
2022-12-29T04:40:47.906Z,15.52
2022-12-29T04:43:18.003Z,13.82
2022-12-29T04:46:04.644Z,15.25
2022-12-29T04:48:55.556Z,14.70
2022-12-29T04:51:30.123Z,13.43
2022-12-29T04:53:58.348Z,17.38
2022-12-29T04:56:27.518Z,12.00
2022-12-29T04:58:55.370Z,15.40
2022-12-29T05:01:23.848Z,13.07
2022-12-29T05:03:53.251Z,15.35
2022-12-29T05:06:21.457Z,14.82
2022-12-29T05:08:51.047Z,13.00
2022-12-29T05:11:19.111Z,16.10
2022-12-29T05:13:49.387Z,12.70
2022-12-29T05:16:18.800Z,11.07
2022-12-29T05:18:46.641Z,13.60
2022-12-29T05:21:15.363Z,10.68
2022-12-29T05:23:44.879Z,11.52
2022-12-29T05:26:12.968Z,12.93
2022-12-29T05:28:55.125Z,13.63
2022-12-29T05:31:24.072Z,12.95
2022-12-29T05:33:52.081Z,14.52
2022-12-29T05:36:20.786Z,11.55
2022-12-29T05:38:51.967Z,11.35
2022-12-29T05:41:20.064Z,11.77
2022-12-29T05:44:08.306Z,7.60
2022-12-29T05:46:56.418Z,13.50
2022-12-29T05:49:48.700Z,10.63
2022-12-29T05:52:26.483Z,10.15
2022-12-29T05:54:54.920Z,11.38
2022-12-29T05:57:24.439Z,10.57
2022-12-29T06:00:01.235Z,8.70
2022-12-29T06:02:31.545Z,13.95
2022-12-29T06:04:59.727Z,13.35
2022-12-29T06:07:27.642Z,11.60
2022-12-29T06:09:55.559Z,12.30
2022-12-29T06:12:23.883Z,10.13
2022-12-29T06:14:54.728Z,10.52
2022-12-29T06:17:23.792Z,10.45
2022-12-29T06:19:52.797Z,11.13
2022-12-29T06:22:21.486Z,10.23
2022-12-29T06:24:49.372Z,9.68
2022-12-29T06:27:17.270Z,10.63
2022-12-29T06:29:45.428Z,11.88
2022-12-29T06:32:13.238Z,13.90
2022-12-29T06:34:49.706Z,11.88
2022-12-29T06:37:17.557Z,13.57
2022-12-29T06:39:45.503Z,14.98
2022-12-29T06:42:15.433Z,11.95
2022-12-29T06:44:43.332Z,9.27
2022-12-29T06:47:11.687Z,11.25
2022-12-29T06:49:39.686Z,14.88
2022-12-29T06:52:12.425Z,14.35
2022-12-29T06:54:41.039Z,10.60
2022-12-29T06:57:09.174Z,14.10
2022-12-29T06:59:37.076Z,11.40
2022-12-29T07:02:05.069Z,12.00
2022-12-29T07:04:33.132Z,9.55
2022-12-29T07:07:01.425Z,9.52
2022-12-29T07:09:29.292Z,10.30
2022-12-29T07:11:57.121Z,8.48
2022-12-29T07:14:24.854Z,9.77
2022-12-29T07:16:52.863Z,11.88
2022-12-29T07:19:20.808Z,10.55
2022-12-29T07:21:48.737Z,11.85
2022-12-29T07:24:16.569Z,12.90
2022-12-29T07:26:44.427Z,9.77
2022-12-29T07:29:12.293Z,13.80
2022-12-29T07:31:40.260Z,12.15
2022-12-29T07:34:09.904Z,13.02
2022-12-29T07:36:38.114Z,16.48
2022-12-29T07:39:05.942Z,18.63
2022-12-29T07:41:33.941Z,12.48
2022-12-29T07:44:03.951Z,18.00
2022-12-29T07:46:56.277Z,15.32
2022-12-29T07:49:25.245Z,14.13
2022-12-29T07:51:53.161Z,12.18
2022-12-29T07:54:21.142Z,15.45
2022-12-29T07:56:49.143Z,13.15
2022-12-29T07:59:17.147Z,14.88
2022-12-29T08:01:45.252Z,13.43
2022-12-29T08:04:13.113Z,11.50
2022-12-29T08:06:40.954Z,13.63
2022-12-29T08:09:16.384Z,14.85
2022-12-29T08:11:46.204Z,14.25
2022-12-29T08:14:14.151Z,9.80
2022-12-29T08:16:42.157Z,11.57
2022-12-29T08:19:12.705Z,17.20
2022-12-29T08:21:40.952Z,13.50
2022-12-29T08:24:09.613Z,13.73
2022-12-29T08:26:37.522Z,13.07
2022-12-29T08:29:05.404Z,11.55
2022-12-29T08:31:33.359Z,17.25
2022-12-29T08:34:02.652Z,15.25
2022-12-29T08:36:31.729Z,16.23
2022-12-29T08:38:59.651Z,13.43
2022-12-29T08:41:27.540Z,12.70
2022-12-29T08:43:55.453Z,15.48
2022-12-29T08:46:23.530Z,15.52
2022-12-29T08:48:51.522Z,15.68
2022-12-29T08:51:24.445Z,14.00
2022-12-29T08:53:53.640Z,18.98
2022-12-29T08:56:22.146Z,17.38
2022-12-29T08:58:53.652Z,16.48
2022-12-29T09:01:23.369Z,16.08
2022-12-29T09:04:14.354Z,19.30
2022-12-29T09:06:40.806Z,15.15
2022-12-29T09:09:08.969Z,17.25
2022-12-29T09:11:36.861Z,14.27
2022-12-29T09:14:05.473Z,15.38
2022-12-29T09:16:33.654Z,13.90
2022-12-29T09:19:02.096Z,12.15
2022-12-29T09:21:30.222Z,15.98
2022-12-29T09:23:58.099Z,20.48
2022-12-29T09:26:26.106Z,20.00
2022-12-29T09:28:54.547Z,19.42
2022-12-29T09:31:23.402Z,16.92
2022-12-29T09:33:51.287Z,18.38
2022-12-29T09:36:19.070Z,14.90
2022-12-29T09:38:46.933Z,15.20
2022-12-29T09:41:38.545Z,17.65
2022-12-29T09:44:06.399Z,24.83
2022-12-29T09:46:47.534Z,25.38
2022-12-29T09:49:44.484Z,20.33
2022-12-29T09:52:19.542Z,17.88
2022-12-29T09:55:00.954Z,18.30
2022-12-29T09:57:46.115Z,23.58
2022-12-29T10:00:19.746Z,22.27
2022-12-29T10:05:29.199Z,22.13
2022-12-29T10:08:17.877Z,24.05
2022-12-29T10:10:55.037Z,22.95
2022-12-29T10:13:29.535Z,19.73
2022-12-29T10:16:07.192Z,20.17
2022-12-29T10:19:07.761Z,20.13
2022-12-29T10:21:44.191Z,24.05
2022-12-29T10:24:13.574Z,20.92
2022-12-29T10:26:44.310Z,22.85
2022-12-29T10:29:23.144Z,21.52
2022-12-29T10:32:02.449Z,26.65
2022-12-29T10:34:39.354Z,27.88
2022-12-29T10:37:22.604Z,20.58
2022-12-29T10:39:56.355Z,19.30
2022-12-29T10:42:28.819Z,23.17
2022-12-29T10:44:57.792Z,24.75
2022-12-29T10:47:32.637Z,22.42
2022-12-29T10:52:31.509Z,27.33
2022-12-29T10:55:33.676Z,25.35
2022-12-29T10:58:06.538Z,27.90
2022-12-29T11:00:35.118Z,25.88
2022-12-29T11:03:10.112Z,24.85
2022-12-29T11:05:56.066Z,26.63
2022-12-29T11:08:32.650Z,25.92
2022-12-29T11:11:09.236Z,32.88
2022-12-29T11:13:59.035Z,34.63
2022-12-29T11:16:33.436Z,34.75
2022-12-29T11:19:02.516Z,30.42
2022-12-29T11:21:43.626Z,35.47
2022-12-29T11:24:29.529Z,28.17
2022-12-29T11:27:25.516Z,39.97
2022-12-29T11:29:55.273Z,33.75
2022-12-29T11:32:28.848Z,35.25
2022-12-29T11:34:59.897Z,31.92
2022-12-29T11:37:43.641Z,33.33
2022-12-29T11:40:20.305Z,32.00
2022-12-29T11:42:58.056Z,31.45
2022-12-29T11:45:28.580Z,35.63
2022-12-29T11:48:01.080Z,34.85
2022-12-29T11:50:34.513Z,38.15
2022-12-29T11:53:12.350Z,31.83
2022-12-29T11:55:40.434Z,36.67
2022-12-29T11:58:15.575Z,31.38
2022-12-29T12:00:45.454Z,32.30
2022-12-29T12:03:23.884Z,28.95
2022-12-29T12:05:58.322Z,32.75
2022-12-29T12:08:54.924Z,32.95
2022-12-29T12:11:37.379Z,36.78
2022-12-29T12:14:23.000Z,39.92
2022-12-29T12:17:22.689Z,39.42
2022-12-29T12:19:53.107Z,36.38
2022-12-29T12:22:29.209Z,35.50
2022-12-29T12:25:22.925Z,31.13
2022-12-29T12:28:20.459Z,32.75
2022-12-29T12:30:54.803Z,32.50
2022-12-29T12:33:38.436Z,31.83
2022-12-29T12:36:24.262Z,31.47
2022-12-29T12:39:13.549Z,31.77
2022-12-29T12:41:44.148Z,31.40
2022-12-29T12:44:38.135Z,41.83
2022-12-29T12:47:06.005Z,55.43
2022-12-29T12:50:02.806Z,30.08
2022-12-29T12:52:44.124Z,33.38
2022-12-29T12:55:39.202Z,33.50
2022-12-29T12:58:19.131Z,33.47
2022-12-29T13:01:14.766Z,31.60
2022-12-29T13:03:45.415Z,32.33
2022-12-29T13:06:37.352Z,27.63
2022-12-29T13:09:14.749Z,29.83
2022-12-29T13:11:55.875Z,33.88
2022-12-29T13:14:40.587Z,38.20
2022-12-29T13:17:37.531Z,31.75
2022-12-29T13:20:21.359Z,33.45
2022-12-29T13:23:07.677Z,34.67
2022-12-29T13:25:40.901Z,28.90
2022-12-29T13:28:17.757Z,33.60
2022-12-29T13:31:09.472Z,32.10
2022-12-29T13:33:55.251Z,30.67
2022-12-29T13:36:30.975Z,28.23
2022-12-29T13:39:27.750Z,30.70
2022-12-29T13:41:57.538Z,29.23
2022-12-29T13:44:36.246Z,31.02
2022-12-29T13:47:32.647Z,35.13
2022-12-29T13:50:04.104Z,27.58
2022-12-29T13:52:46.134Z,27.55
2022-12-29T13:55:24.035Z,28.38
2022-12-29T13:58:16.462Z,27.42
2022-12-29T14:01:39.910Z,31.40
2022-12-29T14:04:15.667Z,30.73
2022-12-29T14:06:46.139Z,26.48
2022-12-29T14:09:38.146Z,27.58
2022-12-29T14:12:34.661Z,33.05
2022-12-29T14:15:11.405Z,30.20
2022-12-29T14:17:45.744Z,31.83
2022-12-29T14:20:23.638Z,30.88
2022-12-29T14:23:26.819Z,33.90
2022-12-29T14:26:06.645Z,36.60
2022-12-29T14:28:35.671Z,35.40
2022-12-29T14:31:05.671Z,32.38
2022-12-29T14:33:35.177Z,29.98
2022-12-29T14:36:35.263Z,32.17
2022-12-29T14:39:04.313Z,32.47
2022-12-29T14:41:39.505Z,37.40
2022-12-29T14:44:20.628Z,34.35
2022-12-29T14:46:54.701Z,36.72
2022-12-29T14:49:26.617Z,35.60
2022-12-29T14:52:06.598Z,34.53
2022-12-29T14:54:34.379Z,41.42
2022-12-29T14:57:04.954Z,36.30
2022-12-29T14:59:35.157Z,34.13
2022-12-29T15:02:14.704Z,38.15
2022-12-29T15:04:44.094Z,35.97
2022-12-29T15:07:13.072Z,40.50
2022-12-29T15:09:50.451Z,38.33
2022-12-29T15:12:21.078Z,40.88
2022-12-29T15:14:55.865Z,41.67
2022-12-29T15:17:35.577Z,39.85
2022-12-29T15:20:22.446Z,34.60
2022-12-29T15:22:57.419Z,40.35
2022-12-29T15:25:26.511Z,40.40
2022-12-29T15:28:04.911Z,51.33
2022-12-29T15:30:34.249Z,39.30
2022-12-29T15:33:03.808Z,41.58
2022-12-29T15:35:38.767Z,43.30
2022-12-29T15:38:28.106Z,44.17
2022-12-29T15:41:07.823Z,37.00
2022-12-29T15:43:52.769Z,41.78
2022-12-29T15:46:21.164Z,39.65
2022-12-29T15:48:49.395Z,44.28
2022-12-29T15:51:19.881Z,45.50
2022-12-29T15:53:52.884Z,38.15
2022-12-29T15:56:21.210Z,39.72
2022-12-29T15:58:52.552Z,44.85
2022-12-29T16:01:34.072Z,42.03
2022-12-29T16:04:06.166Z,42.40
2022-12-29T16:06:39.022Z,42.55
2022-12-29T16:09:18.504Z,41.72
2022-12-29T16:11:56.464Z,39.22
2022-12-29T16:14:44.733Z,45.55
2022-12-29T16:17:22.100Z,46.95
2022-12-29T16:20:06.749Z,48.58
2022-12-29T16:22:40.018Z,47.50
2022-12-29T16:25:25.436Z,44.27
2022-12-29T16:27:53.852Z,45.35
2022-12-29T16:30:32.861Z,45.72
2022-12-29T16:33:03.682Z,46.92
2022-12-29T16:35:47.254Z,42.50
2022-12-29T16:38:23.696Z,46.77
2022-12-29T16:40:58.416Z,48.83
2022-12-29T16:43:31.500Z,47.33
2022-12-29T16:45:59.359Z,48.17
2022-12-29T16:48:46.617Z,44.05
2022-12-29T16:51:23.357Z,47.67
2022-12-29T16:53:53.621Z,48.70
2022-12-29T16:56:26.720Z,44.40
2022-12-29T16:59:08.795Z,47.60
2022-12-29T17:01:39.661Z,49.13
2022-12-29T17:04:10.800Z,53.65
2022-12-29T17:06:39.423Z,48.05
2022-12-29T17:09:22.226Z,47.08
2022-12-29T17:12:02.596Z,50.17
2022-12-29T17:14:53.802Z,47.20
2022-12-29T17:17:31.057Z,51.20
2022-12-29T17:20:15.178Z,45.50
2022-12-29T17:22:43.138Z,44.08
2022-12-29T17:25:18.734Z,51.78
2022-12-29T17:28:02.759Z,59.20
2022-12-29T17:30:34.753Z,47.13
2022-12-29T17:33:06.481Z,66.88
2022-12-29T17:35:34.480Z,51.30
2022-12-29T17:38:02.456Z,54.08
2022-12-29T17:40:33.512Z,47.92
2022-12-29T17:43:01.395Z,49.75
2022-12-29T17:45:33.177Z,51.47
2022-12-29T17:48:02.045Z,48.80
2022-12-29T17:50:31.918Z,51.67
2022-12-29T17:53:12.764Z,46.40
2022-12-29T17:55:40.833Z,57.20
2022-12-29T17:58:29.145Z,48.08
2022-12-29T18:00:59.890Z,49.95
2022-12-29T18:03:33.310Z,47.28
2022-12-29T18:06:01.650Z,50.10
2022-12-29T18:08:29.664Z,48.13
2022-12-29T18:10:58.059Z,53.20
2022-12-29T18:13:43.570Z,42.65
2022-12-29T18:16:14.830Z,49.50
2022-12-29T18:18:42.931Z,52.45
2022-12-29T18:21:22.015Z,43.05
2022-12-29T18:23:50.618Z,47.50
2022-12-29T18:26:25.711Z,44.20
2022-12-29T18:28:57.078Z,54.50
2022-12-29T18:31:27.786Z,48.63
2022-12-29T18:33:57.979Z,52.13
2022-12-29T18:36:26.744Z,51.38
2022-12-29T18:38:55.119Z,55.72
2022-12-29T18:41:30.957Z,52.42
2022-12-29T18:44:00.111Z,51.85
2022-12-29T18:46:28.307Z,49.85
2022-12-29T18:48:56.295Z,47.45
2022-12-29T18:51:26.030Z,46.25
2022-12-29T18:53:54.787Z,45.90
2022-12-29T18:56:24.201Z,39.35
2022-12-29T18:58:53.670Z,43.42
2022-12-29T19:01:25.108Z,46.08
2022-12-29T19:03:53.497Z,42.45
2022-12-29T19:06:21.624Z,43.30
2022-12-29T19:08:49.581Z,56.13
2022-12-29T19:11:18.085Z,80.25
2022-12-29T19:13:45.945Z,73.18
2022-12-29T19:16:19.840Z,59.85
2022-12-29T19:19:02.366Z,44.22
2022-12-29T19:21:37.007Z,49.92
2022-12-29T19:24:05.377Z,45.70
2022-12-29T19:26:36.753Z,49.08
2022-12-29T19:29:06.991Z,45.33
2022-12-29T19:31:35.993Z,42.10
2022-12-29T19:34:04.101Z,44.70
2022-12-29T19:36:32.365Z,47.00
2022-12-29T19:39:00.709Z,45.53
2022-12-29T19:41:28.601Z,44.95
2022-12-29T19:43:56.497Z,49.08
2022-12-29T19:46:25.703Z,39.30
2022-12-29T19:48:59.149Z,40.00
2022-12-29T19:51:27.592Z,43.85
2022-12-29T19:53:56.129Z,44.42
2022-12-29T19:56:23.997Z,42.15
2022-12-29T19:58:52.054Z,38.58
2022-12-29T20:01:22.792Z,37.60
2022-12-29T20:03:51.737Z,37.95
2022-12-29T20:06:20.457Z,41.25
2022-12-29T20:08:48.616Z,42.90
2022-12-29T20:11:18.228Z,40.42
2022-12-29T20:13:47.537Z,39.15
2022-12-29T20:16:18.319Z,38.00
2022-12-29T20:18:47.367Z,38.50
2022-12-29T20:21:20.685Z,39.33
2022-12-29T20:23:49.436Z,41.10
2022-12-29T20:26:28.454Z,36.10
2022-12-29T20:28:58.256Z,38.00
2022-12-29T20:31:38.218Z,40.47
2022-12-29T20:34:09.819Z,51.55
2022-12-29T20:36:41.383Z,47.60
2022-12-29T20:39:22.842Z,49.55
2022-12-29T20:41:51.487Z,51.70
2022-12-29T20:44:19.616Z,49.40
2022-12-29T20:46:47.428Z,44.67
2022-12-29T20:49:15.435Z,49.00
2022-12-29T20:54:39.111Z,38.40
2022-12-29T20:57:08.267Z,38.70
2022-12-29T20:59:36.411Z,40.13
2022-12-29T21:02:04.668Z,37.03
2022-12-29T21:04:57.745Z,37.45
2022-12-29T21:07:20.639Z,35.42
2022-12-29T21:09:48.512Z,34.75
2022-12-29T21:12:16.365Z,38.95
2022-12-29T21:14:45.920Z,37.88
2022-12-29T21:17:14.141Z,38.45
2022-12-29T21:19:42.066Z,38.25
2022-12-29T21:22:09.934Z,39.13
2022-12-29T21:24:38.705Z,34.42
2022-12-29T21:27:06.490Z,35.20
2022-12-29T21:29:34.301Z,32.92
2022-12-29T21:32:06.510Z,38.88
2022-12-29T21:34:35.718Z,37.72
2022-12-29T21:37:03.708Z,36.88
2022-12-29T21:39:31.622Z,38.13
2022-12-29T21:42:01.759Z,35.22
2022-12-29T21:44:48.058Z,34.92
2022-12-29T21:47:15.904Z,35.08
2022-12-29T21:49:43.793Z,35.55
2022-12-29T21:52:11.686Z,38.85
2022-12-29T21:54:58.262Z,38.70
2022-12-29T21:57:44.728Z,37.20
2022-12-29T22:00:31.741Z,35.90
2022-12-29T22:03:22.916Z,32.22
2022-12-29T22:06:11.517Z,34.92
2022-12-29T22:08:58.531Z,33.05
2022-12-29T22:11:45.214Z,34.10
2022-12-29T22:14:13.189Z,32.40
2022-12-29T22:16:41.137Z,30.42
2022-12-29T22:19:10.689Z,28.30
2022-12-29T22:21:38.578Z,30.73
2022-12-29T22:24:06.795Z,30.42
2022-12-29T22:26:34.699Z,29.65
2022-12-29T22:29:02.462Z,31.20
2022-12-29T22:31:33.010Z,32.25
2022-12-29T22:34:02.801Z,29.38
2022-12-29T22:36:32.418Z,32.33
2022-12-29T22:39:00.388Z,32.67
2022-12-29T22:41:28.244Z,33.42
2022-12-29T22:43:56.192Z,32.70
2022-12-29T22:46:24.085Z,33.22
2022-12-29T22:48:51.947Z,33.40
2022-12-29T22:51:19.838Z,32.03
2022-12-29T22:53:51.016Z,36.30
2022-12-29T22:56:18.949Z,31.77
2022-12-29T22:58:48.505Z,36.55
2022-12-29T23:01:18.339Z,37.28
2022-12-29T23:03:46.450Z,33.75
2022-12-29T23:06:16.963Z,31.23
2022-12-29T23:08:45.213Z,32.92
2022-12-29T23:11:13.717Z,34.15
2022-12-29T23:13:44.674Z,35.95
2022-12-29T23:16:13.529Z,32.50
2022-12-29T23:18:42.234Z,35.53
2022-12-29T23:21:10.406Z,29.88
2022-12-29T23:23:53.503Z,28.85
2022-12-29T23:26:27.603Z,31.88
2022-12-29T23:28:59.953Z,29.88
2022-12-29T23:31:30.084Z,29.35
2022-12-29T23:33:59.944Z,28.80
2022-12-29T23:36:28.793Z,31.23
2022-12-29T23:38:57.285Z,30.67
2022-12-29T23:41:26.037Z,28.70
2022-12-29T23:43:54.100Z,29.30
2022-12-29T23:46:24.788Z,29.85
2022-12-29T23:48:52.977Z,27.30
2022-12-29T23:51:20.911Z,28.20
2022-12-29T23:53:48.902Z,27.63
2022-12-29T23:56:20.673Z,28.00
2022-12-29T23:58:49.491Z,28.25
